LAX - Los Angeles Intl

Pirep is a free, collaborative database of all public and private airports located within the United States. All pilots are welcome to contribute, edit, and improve any airport they have local knowledge about, no registration required.
Are you familiar with this airport? Help out other pilots by adding your local knowledge.
Uploaded photos will be licensed under a CC BY-SA 4.0 license. Please only upload photos you have the rights to use.
Tags
Public
Undocu­mented
METAR / TAF
Edit Tags
Food
Camping
Lodging
Car Rental
Bicycles
Swimming
Golfing
Fishing
Hot Springs
Museum
Flying Clubs
Airpark
Upcoming Events
No upcoming events. Is anything happening here soon?
*
*
*

Where exactly on/near the airport is this event taking place?

Is there a webpage with more information for this event?

Who should be contacted for more information?

What is this event all about?

Repeat every
Description
Transient Parking
Fuel Location
Landing & Tie-down Fees
Crew Car Availability
Flying Clubs
WiFi Access
Airport Statistics
Location: Los Angeles, CA
Elevation: 127ft
Sectional: Los Angeles
Activation date: Apr 1940
Fuel: A (prices)
Runway 07L/25R: 12,923ft
Runway 07R/25L: 11,095ft
Runway 06R/24L: 10,885ft
Runway 06L/24R: 8,926ft
Access: Open to the public
Current Weather — MVFR
  • Weather data is strictly informational and not for flight planning purposes.
  • METAR
    2024-05-26 03:53:00 PDT
    Ceiling Wind Temperature Dewpoint Weather Visbility
    1,600ft 330° @ 3kt 57°F 51°F N/A 10SM
    Clouds: Broken @ 1,600ft, Overcast @ 1,900ft
    Raw: KLAX 261053Z 33003KT 10SM BKN016 OVC019 14/11 A2999 RMK AO2 SLP152 T01440111
  • TAF
    2024-05-26 03:00:00 PDT – 2024-05-26 08:00:00 PDT
    Ceiling Wind Weather Visbility
    1,400ft Variable N/A 6SM
    Clouds: Broken @ 1,400ft
    Raw: KLAX 261011Z 2610/2712 VRB03KT P6SM BKN014 FM261500 VRB03KT P6SM BKN022 FM261800 22006KT P6SM SCT030 FM262100 27012KT P6SM FEW035 FM270400 26006KT P6SM SKC FM270800 26006KT P6SM BKN015
  • TAF
    2024-05-26 08:00:00 PDT – 2024-05-26 11:00:00 PDT
    Ceiling Wind Weather Visbility
    2,200ft Variable N/A 6SM
    Clouds: Broken @ 2,200ft
    Raw: KLAX 261011Z 2610/2712 VRB03KT P6SM BKN014 FM261500 VRB03KT P6SM BKN022 FM261800 22006KT P6SM SCT030 FM262100 27012KT P6SM FEW035 FM270400 26006KT P6SM SKC FM270800 26006KT P6SM BKN015
  • TAF
    2024-05-26 11:00:00 PDT – 2024-05-26 14:00:00 PDT
    Ceiling Wind Weather Visbility
    Sky clear 220° @ 6kt N/A 6SM
    Clouds: Scattered @ 3,000ft
    Raw: KLAX 261011Z 2610/2712 VRB03KT P6SM BKN014 FM261500 VRB03KT P6SM BKN022 FM261800 22006KT P6SM SCT030 FM262100 27012KT P6SM FEW035 FM270400 26006KT P6SM SKC FM270800 26006KT P6SM BKN015
  • TAF
    2024-05-26 14:00:00 PDT – 2024-05-26 21:00:00 PDT
    Ceiling Wind Weather Visbility
    Sky clear 270° @ 12kt N/A 6SM
    Clouds: Few @ 3,500ft
    Raw: KLAX 261011Z 2610/2712 VRB03KT P6SM BKN014 FM261500 VRB03KT P6SM BKN022 FM261800 22006KT P6SM SCT030 FM262100 27012KT P6SM FEW035 FM270400 26006KT P6SM SKC FM270800 26006KT P6SM BKN015
  • TAF
    2024-05-26 21:00:00 PDT – 2024-05-27 01:00:00 PDT
    Ceiling Wind Weather Visbility
    Sky clear 260° @ 6kt N/A 6SM
    Clouds: @ ft
    Raw: KLAX 261011Z 2610/2712 VRB03KT P6SM BKN014 FM261500 VRB03KT P6SM BKN022 FM261800 22006KT P6SM SCT030 FM262100 27012KT P6SM FEW035 FM270400 26006KT P6SM SKC FM270800 26006KT P6SM BKN015
  • TAF
    2024-05-27 01:00:00 PDT – 2024-05-27 05:00:00 PDT
    Ceiling Wind Weather Visbility
    1,500ft 260° @ 6kt N/A 6SM
    Clouds: Broken @ 1,500ft
    Raw: KLAX 261011Z 2610/2712 VRB03KT P6SM BKN014 FM261500 VRB03KT P6SM BKN022 FM261800 22006KT P6SM SCT030 FM262100 27012KT P6SM FEW035 FM270400 26006KT P6SM SKC FM270800 26006KT P6SM BKN015
Click/tap to add an annotation marker to the map
Airport Webcams
No webcams added yet.
Direct links to live image URLs will be displayed inline on this page. URLs to separate webpages will be linked to.
URL:
Direct links to live image URLs will be displayed inline on this page. URLs to separate webpages will be linked to.
URL:
Remarks
  • Nmrs birds on and in vcnty of arpt.
  • Turb may be deflected upward fm the blast fence 180 ft e of rwy 25r.
  • Noise sens arpt on westerly takeoffs no turns before crossing shoreline over-ocean apchs utilized 0000-0630.
  • Practice instrument approaches & touch and go landings are prohibited.
  • Rwy 7r/25l preferred emerg rwy.
Comments
Leave a comment What was your experience like at this airport?